Time;durP1;ratioP1;P1;durP2;ratioP2;P2;SDS_P1;SDS_P2;PMS_P1;PMS_P2;Temp;Humidity;BMP_temperature;BMP_pressure;BME280_temperature;BME280_humidity;BME280_pressure;Samples;Min_cycle;Max_cycle;Signal;HPM_P1;HPM_P2
2023/05/27 00:02:13;;;;;;;0.75;0.43;;;;;;;14.46;76.25;102219.72;4970150;28;20033;-52
2023/05/27 00:04:38;;;;;;;0.80;0.45;;;;;;;14.36;76.33;102220.19;4955833;28;20442;-54
2023/05/27 00:07:04;;;;;;;2.28;0.80;;;;;;;14.26;77.15;102215.22;4971857;28;20038;-52
2023/05/27 00:09:29;;;;;;;1.17;0.70;;;;;;;14.38;76.59;102215.22;4974013;28;20035;-54
2023/05/27 00:11:55;;;;;;;0.30;0.30;;;;;;;14.37;76.22;102219.06;4968960;28;20433;-53
2023/05/27 00:14:21;;;;;;;0.40;0.40;;;;;;;14.20;77.03;102219.31;4952230;28;20043;-57
2023/05/27 00:16:49;;;;;;;1.30;0.47;;;;;;;14.22;77.14;102216.25;4972235;28;20030;-49
2023/05/27 00:19:16;;;;;;;0.60;0.25;;;;;;;14.22;77.08;102213.53;4973658;28;20210;-54
2023/05/27 00:21:42;;;;;;;2.53;0.70;;;;;;;14.21;77.38;102215.44;4969855;28;20113;-49
2023/05/27 00:24:08;;;;;;;1.63;0.80;;;;;;;14.14;77.71;102223.38;4972292;28;20129;-51
2023/05/27 00:26:34;;;;;;;0.98;0.90;;;;;;;14.18;77.24;102213.44;4973230;28;20026;-53
2023/05/27 00:28:59;;;;;;;0.52;0.52;;;;;;;14.13;77.53;102216.34;4972954;28;20051;-49
2023/05/27 00:31:25;;;;;;;1.65;0.60;;;;;;;14.13;77.38;102208.22;4958652;28;20042;-56
2023/05/27 00:33:51;;;;;;;0.73;0.60;;;;;;;14.14;77.02;102217.16;4967246;28;20058;-58
2023/05/27 00:36:17;;;;;;;1.38;0.85;;;;;;;13.79;78.62;102214.09;4952355;28;20062;-56
2023/05/27 00:38:43;;;;;;;1.55;0.35;;;;;;;13.86;79.00;102218.97;4969510;28;20042;-51
2023/05/27 00:41:11;;;;;;;4.20;0.77;;;;;;;13.88;78.80;102220.19;4971664;28;20031;-49
2023/05/27 00:43:37;;;;;;;1.50;0.50;;;;;;;13.87;78.46;102212.41;4952663;28;20038;-51
2023/05/27 00:46:02;;;;;;;3.85;0.77;;;;;;;13.88;78.93;102214.00;4956365;28;20457;-51
2023/05/27 00:48:29;;;;;;;2.50;0.90;;;;;;;13.86;78.94;102214.31;4954583;28;20066;-55
2023/05/27 00:50:54;;;;;;;5.38;1.17;;;;;;;13.98;77.75;102213.53;4972393;28;20023;-50
2023/05/27 00:53:21;;;;;;;1.52;0.73;;;;;;;13.97;77.79;102204.63;4950076;28;20027;-49
2023/05/27 00:55:47;;;;;;;4.45;0.55;;;;;;;13.87;78.31;102202.38;4950688;28;20038;-56
2023/05/27 00:58:13;;;;;;;1.90;0.60;;;;;;;13.86;78.88;102200.00;4971324;28;20038;-48
2023/05/27 01:00:38;;;;;;;3.30;0.90;;;;;;;13.72;79.01;102200.34;4954841;28;20438;-52
2023/05/27 01:03:07;;;;;;;1.55;0.47;;;;;;;13.76;78.28;102201.25;4946417;28;20041;-51
2023/05/27 01:05:33;;;;;;;0.52;0.30;;;;;;;13.67;79.30;102203.25;4954443;28;20077;-56
2023/05/27 01:08:23;;;;;;;4.57;0.93;;;;;;;13.71;78.61;102208.78;4971001;28;20481;-51
2023/05/27 01:10:54;;;;;;;0.57;0.35;;;;;;;13.66;79.08;102215.22;4952734;28;20119;-52
2023/05/27 01:13:28;;;;;;;3.30;0.77;;;;;;;13.63;78.58;102207.00;4952688;28;20026;-50
2023/05/27 01:16:00;;;;;;;0.93;0.50;;;;;;;13.74;78.60;102205.41;4972070;28;20038;-56
2023/05/27 01:18:29;;;;;;;6.72;0.88;;;;;;;13.72;78.68;102204.97;4971613;28;20077;-52
2023/05/27 01:21:02;;;;;;;0.55;0.52;;;;;;;13.64;78.95;102206.66;4934203;28;20031;-54
2023/05/27 01:23:28;;;;;;;0.40;0.40;;;;;;;13.49;79.61;102204.59;4971349;28;20371;-52
2023/05/27 01:25:53;;;;;;;1.15;0.73;;;;;;;13.50;79.39;102204.25;4971477;28;20440;-50
2023/05/27 01:28:19;;;;;;;1.52;1.40;;;;;;;13.41;79.40;102200.06;4966293;28;20146;-53
2023/05/27 01:30:45;;;;;;;0.95;0.73;;;;;;;13.45;79.56;102206.41;4971112;28;20369;-56
2023/05/27 01:33:25;;;;;;;1.13;0.65;;;;;;;13.39;79.98;102200.38;4952662;28;20409;-51
2023/05/27 01:35:59;;;;;;;2.15;0.60;;;;;;;13.38;79.71;102209.63;4951895;28;20531;-57
2023/05/27 01:38:46;;;;;;;0.73;0.57;;;;;;;13.45;79.42;102211.81;4971370;28;20082;-56
2023/05/27 01:41:13;;;;;;;2.58;0.68;;;;;;;13.51;79.30;102205.06;4910610;29;20122;-53
2023/05/27 01:43:40;;;;;;;0.40;0.40;;;;;;;13.32;80.00;102202.06;4926012;29;20047;-51
2023/05/27 01:46:06;;;;;;;1.48;0.35;;;;;;;13.24;79.99;102197.56;4928940;29;20052;-59
2023/05/27 01:48:31;;;;;;;1.20;0.40;;;;;;;13.32;80.10;102196.66;4930629;29;20547;-57
2023/05/27 01:50:57;;;;;;;1.95;0.65;;;;;;;13.26;80.13;102189.88;4930069;29;20035;-54
2023/05/27 01:53:22;;;;;;;1.85;0.65;;;;;;;13.16;80.13;102190.31;4925281;29;20071;-55
2023/05/27 01:55:48;;;;;;;3.35;0.85;;;;;;;13.18;80.22;102202.34;4929551;29;20070;-57
2023/05/27 01:58:14;;;;;;;1.48;0.57;;;;;;;13.26;79.64;102201.50;4928741;29;20168;-54
2023/05/27 02:00:40;;;;;;;1.30;0.60;;;;;;;13.25;80.03;102191.00;4926642;29;20039;-56
2023/05/27 02:03:05;;;;;;;0.95;0.77;;;;;;;13.22;79.76;102186.28;4929692;29;20501;-59
2023/05/27 02:05:31;;;;;;;5.22;0.85;;;;;;;13.07;80.03;102181.47;4929441;29;20036;-53
2023/05/27 02:07:56;;;;;;;1.65;0.70;;;;;;;13.04;80.51;102191.06;4929302;29;20023;-57
2023/05/27 02:10:24;;;;;;;4.30;1.02;;;;;;;13.00;81.02;102189.31;4926926;29;20516;-56
2023/05/27 02:12:50;;;;;;;0.47;0.40;;;;;;;12.94;81.43;102186.03;4919045;29;20175;-58
2023/05/27 02:15:16;;;;;;;0.73;0.68;;;;;;;12.98;80.89;102188.84;4922793;29;20062;-54
2023/05/27 02:17:44;;;;;;;1.45;1.10;;;;;;;12.97;80.91;102181.88;4937925;28;20058;-55
2023/05/27 02:20:11;;;;;;;1.42;0.60;;;;;;;12.89;81.61;102188.94;4942883;28;20057;-52
2023/05/27 02:22:36;;;;;;;1.25;0.57;;;;;;;12.81;81.34;102186.31;4970277;28;20038;-55
2023/05/27 02:25:05;;;;;;;0.95;0.50;;;;;;;12.78;81.81;102182.34;4970104;28;20038;-52
2023/05/27 02:27:31;;;;;;;0.55;0.47;;;;;;;12.71;81.66;102182.09;4969946;28;20114;-51
2023/05/27 02:29:57;;;;;;;0.77;0.63;;;;;;;12.77;81.76;102190.81;4967576;28;20118;-55
2023/05/27 02:32:22;;;;;;;3.63;1.63;;;;;;;12.90;81.39;102189.72;4952806;28;20126;-53
2023/05/27 02:34:47;;;;;;;0.50;0.50;;;;;;;12.87;81.08;102185.78;4949024;28;20044;-49
2023/05/27 02:37:13;;;;;;;0.70;0.50;;;;;;;12.58;80.99;102186.66;4968745;28;20038;-55
2023/05/27 02:39:40;;;;;;;2.30;0.52;;;;;;;12.57;82.23;102187.78;4970533;28;20034;-57
2023/05/27 02:42:06;;;;;;;1.85;0.60;;;;;;;12.66;81.72;102180.38;4963687;28;20050;-55
2023/05/27 02:44:32;;;;;;;3.25;1.00;;;;;;;12.65;81.77;102192.34;4967423;28;20043;-53
2023/05/27 02:46:57;;;;;;;4.60;0.70;;;;;;;12.53;82.00;102186.84;4951237;28;20031;-57
2023/05/27 02:49:23;;;;;;;2.63;0.63;;;;;;;12.38;82.46;102190.16;4953359;28;20082;-58
2023/05/27 02:51:48;;;;;;;2.15;1.13;;;;;;;12.33;82.83;102193.03;4938800;28;20055;-49
2023/05/27 02:54:17;;;;;;;0.68;0.50;;;;;;;12.37;83.07;102190.47;4957789;28;20035;-52
2023/05/27 02:56:42;;;;;;;1.27;0.70;;;;;;;12.31;83.29;102189.09;4949847;28;20085;-58
2023/05/27 02:59:08;;;;;;;1.00;0.70;;;;;;;12.41;82.21;102189.50;4966592;28;20075;-56
2023/05/27 03:01:33;;;;;;;7.10;0.90;;;;;;;12.36;82.63;102181.59;4959716;28;20508;-57
2023/05/27 03:03:59;;;;;;;2.67;0.85;;;;;;;12.51;82.46;102193.72;4967660;28;20035;-56
2023/05/27 03:06:24;;;;;;;0.47;0.47;;;;;;;12.45;82.52;102185.00;4952250;28;20034;-52
2023/05/27 03:08:50;;;;;;;1.42;0.50;;;;;;;12.47;82.51;102185.47;4963499;28;20401;-55
2023/05/27 03:11:15;;;;;;;4.22;0.88;;;;;;;12.50;82.29;102189.44;4965079;28;20049;-52
2023/05/27 03:13:41;;;;;;;2.30;1.20;;;;;;;12.52;82.68;102187.19;4968188;28;20417;-53
2023/05/27 03:16:06;;;;;;;2.35;0.80;;;;;;;12.47;81.74;102188.19;4948397;28;20125;-54
2023/05/27 03:18:32;;;;;;;0.70;0.70;;;;;;;12.44;82.67;102193.44;4973766;28;20026;-55
2023/05/27 03:20:57;;;;;;;0.73;0.30;;;;;;;12.47;82.65;102190.88;4940827;28;20113;-49
2023/05/27 03:23:23;;;;;;;2.78;0.43;;;;;;;12.44;83.09;102193.44;4957673;28;20031;-49
2023/05/27 03:25:49;;;;;;;2.78;0.63;;;;;;;12.43;82.85;102192.66;4956033;28;20035;-50
2023/05/27 03:28:16;;;;;;;4.13;0.88;;;;;;;12.39;82.74;102185.53;4970783;28;20041;-55
2023/05/27 03:30:43;;;;;;;2.80;0.95;;;;;;;12.38;83.17;102198.25;4951933;28;20086;-55
2023/05/27 03:33:16;;;;;;;1.05;0.73;;;;;;;12.45;82.83;102195.81;4937829;28;20626;-54
2023/05/27 03:35:42;;;;;;;3.25;1.00;;;;;;;12.46;82.62;102193.91;4972618;28;20035;-52
2023/05/27 03:38:07;;;;;;;3.80;1.15;;;;;;;12.35;83.28;102188.09;4967970;28;20035;-51
2023/05/27 03:40:33;;;;;;;1.38;0.80;;;;;;;12.31;83.57;102184.47;4955722;28;20037;-56
2023/05/27 03:42:59;;;;;;;0.82;0.80;;;;;;;12.37;83.76;102193.97;4969747;28;20038;-57
2023/05/27 03:45:26;;;;;;;6.00;1.48;;;;;;;12.19;83.39;102199.81;4940861;28;20109;-52
2023/05/27 03:47:52;;;;;;;1.42;0.50;;;;;;;12.23;83.61;102193.41;4955196;28;20022;-54
2023/05/27 03:50:19;;;;;;;0.60;0.60;;;;;;;12.17;84.25;102196.66;4947502;29;20102;-55
2023/05/27 03:52:46;;;;;;;1.13;0.95;;;;;;;12.20;83.91;102183.28;4943470;28;20038;-50
2023/05/27 03:55:11;;;;;;;0.60;0.60;;;;;;;12.24;83.39;102186.91;4973643;28;20509;-54
2023/05/27 03:57:37;;;;;;;1.73;0.63;;;;;;;12.11;84.32;102190.66;4955636;28;20125;-52
2023/05/27 04:00:07;;;;;;;1.00;0.93;;;;;;;12.23;84.45;102192.66;4963461;28;20082;-55
2023/05/27 04:02:36;;;;;;;1.05;0.80;;;;;;;12.23;85.06;102195.34;4965221;28;20134;-54
2023/05/27 04:05:01;;;;;;;3.53;1.08;;;;;;;12.29;85.01;102200.22;4949202;28;20477;-56
2023/05/27 04:07:27;;;;;;;1.88;0.70;;;;;;;12.28;85.08;102201.34;4955418;28;20038;-55
2023/05/27 04:09:53;;;;;;;0.93;0.80;;;;;;;12.30;84.40;102204.50;4955638;28;20026;-58
2023/05/27 04:12:18;;;;;;;1.80;0.85;;;;;;;12.31;84.30;102202.59;4965581;28;20273;-53
2023/05/27 04:14:44;;;;;;;2.47;0.70;;;;;;;12.36;84.35;102200.50;4966833;28;20035;-57
2023/05/27 04:17:09;;;;;;;1.08;0.30;;;;;;;12.45;84.78;102197.72;4965812;28;20097;-56
2023/05/27 04:19:35;;;;;;;1.55;1.05;;;;;;;12.49;84.79;102210.25;4954623;28;20034;-54
2023/05/27 04:22:01;;;;;;;0.40;0.40;;;;;;;12.55;84.64;102206.25;4954794;28;20042;-57
2023/05/27 04:24:27;;;;;;;2.20;0.82;;;;;;;12.60;84.40;102197.91;4949278;28;20035;-55
2023/05/27 04:26:52;;;;;;;1.45;0.80;;;;;;;12.62;84.56;102184.88;4968579;28;20030;-55
2023/05/27 04:29:18;;;;;;;2.25;1.20;;;;;;;12.62;84.71;102190.28;4955161;28;20038;-52
2023/05/27 04:31:44;;;;;;;0.63;0.63;;;;;;;12.69;84.25;102193.25;4944169;28;20035;-52
2023/05/27 04:34:14;;;;;;;0.73;0.73;;;;;;;12.64;84.60;102196.16;4952403;28;20195;-57
2023/05/27 04:36:40;;;;;;;1.35;0.60;;;;;;;12.62;85.13;102194.88;4938158;28;20028;-57
2023/05/27 04:39:11;;;;;;;1.52;0.70;;;;;;;12.61;85.13;102199.53;4947516;28;20118;-54
2023/05/27 04:41:39;;;;;;;2.05;0.82;;;;;;;12.67;84.78;102192.78;4943812;28;20027;-56
2023/05/27 04:44:26;;;;;;;0.88;0.60;;;;;;;12.72;85.06;102194.50;4965616;28;20149;-55
2023/05/27 04:46:58;;;;;;;1.48;0.98;;;;;;;12.72;85.47;102199.13;4964958;28;20035;-58
2023/05/27 04:49:25;;;;;;;0.65;0.57;;;;;;;12.85;85.38;102195.34;4995207;23;20381;-54
2023/05/27 04:51:51;;;;;;;2.55;1.00;;;;;;;12.91;85.08;102192.09;4969108;28;20029;-60
2023/05/27 04:54:19;;;;;;;0.75;0.40;;;;;;;13.00;84.57;102190.13;4989200;28;20080;-61
2023/05/27 04:56:46;;;;;;;2.45;0.90;;;;;;;13.14;84.70;102187.16;5003817;28;20595;-53
2023/05/27 04:59:21;;;;;;;1.85;0.90;;;;;;;13.08;84.28;102196.59;4984161;22;20042;-59
2023/05/27 05:02:09;;;;;;;4.82;0.95;;;;;;;13.18;84.67;102183.44;4963651;28;20030;-60
2023/05/27 05:04:39;;;;;;;0.68;0.60;;;;;;;13.18;84.05;102186.13;4961897;28;20047;-58
2023/05/27 05:07:05;;;;;;;1.27;0.40;;;;;;;13.41;84.06;102191.94;4977115;28;20102;-59
2023/05/27 05:09:33;;;;;;;2.58;0.70;;;;;;;13.59;83.98;102190.59;4965493;28;20031;-55
2023/05/27 05:12:07;;;;;;;4.10;0.60;;;;;;;13.91;83.87;102183.53;4947952;28;20328;-56
2023/05/27 05:14:37;;;;;;;1.10;0.65;;;;;;;14.10;82.45;102192.66;4954176;28;20058;-57
2023/05/27 05:17:03;;;;;;;1.35;0.85;;;;;;;14.48;81.12;102189.56;4963790;28;20039;-58
2023/05/27 05:19:28;;;;;;;2.10;0.90;;;;;;;14.75;80.61;102186.09;4968785;28;20405;-58
2023/05/27 05:21:54;;;;;;;4.70;1.27;;;;;;;14.93;78.90;102183.88;4954947;28;20037;-58
2023/05/27 05:24:20;;;;;;;1.02;0.45;;;;;;;15.12;78.81;102192.94;4951419;28;20050;-59
2023/05/27 05:26:46;;;;;;;3.90;1.00;;;;;;;15.52;77.74;102192.06;4952785;28;20552;-58
2023/05/27 05:29:11;;;;;;;1.98;0.70;;;;;;;15.58;75.88;102188.72;4937080;28;20041;-58
2023/05/27 05:31:37;;;;;;;1.50;0.65;;;;;;;15.72;74.35;102189.06;4964326;28;20070;-63
2023/05/27 05:34:03;;;;;;;2.33;0.85;;;;;;;15.96;74.15;102191.59;4937851;28;20614;-58
2023/05/27 05:36:31;;;;;;;2.28;0.85;;;;;;;16.09;74.65;102195.78;4950370;28;20066;-61
2023/05/27 05:39:04;;;;;;;5.57;0.77;;;;;;;16.11;73.34;102209.81;4934785;28;20149;-60
2023/05/27 05:41:30;;;;;;;1.30;0.68;;;;;;;16.28;73.31;102201.25;4943059;28;20046;-61
2023/05/27 05:43:55;;;;;;;1.05;0.57;;;;;;;16.36;72.64;102202.19;4935932;28;20486;-63
2023/05/27 05:46:21;;;;;;;2.28;0.93;;;;;;;16.59;73.16;102196.91;4930295;28;20062;-59
2023/05/27 05:48:47;;;;;;;3.10;0.60;;;;;;;16.69;71.76;102207.19;4940818;28;20402;-61
2023/05/27 05:51:18;;;;;;;;;;;;;;;16.68;71.06;102200.19;4946154;28;20030;-61
2023/05/27 05:53:47;;;;;;;0.68;0.50;;;;;;;16.84;70.46;102206.34;4949200;28;20067;-60
2023/05/27 05:56:13;;;;;;;0.77;0.40;;;;;;;17.05;70.26;102206.78;4960470;28;20035;-61
2023/05/27 05:58:39;;;;;;;2.97;0.60;;;;;;;17.02;69.94;102202.81;4954067;28;20037;-61
2023/05/27 06:01:05;;;;;;;0.65;0.65;;;;;;;17.18;69.98;102202.72;4951196;28;20093;-61
2023/05/27 06:03:36;;;;;;;6.25;1.20;;;;;;;17.25;68.57;102204.81;4949348;28;20030;-60
2023/05/27 06:06:03;;;;;;;2.25;0.98;;;;;;;17.44;69.17;102210.97;4980339;23;20061;-67
2023/05/27 06:08:31;;;;;;;4.07;1.00;;;;;;;17.33;68.38;102217.38;4988876;28;20652;-65
2023/05/27 06:11:04;;;;;;;0.88;0.22;;;;;;;17.49;69.08;102207.19;4987662;28;20038;-66
2023/05/27 06:13:32;;;;;;;1.45;0.68;;;;;;;17.49;68.78;102201.75;4986477;28;20035;-65
2023/05/27 06:16:01;;;;;;;5.80;1.00;;;;;;;17.62;70.07;102200.41;4989589;28;20133;-67
2023/05/27 06:18:28;;;;;;;4.82;0.47;;;;;;;17.75;69.50;102213.47;4983158;28;20514;-66
2023/05/27 06:20:54;;;;;;;4.60;0.90;;;;;;;17.90;69.33;102204.38;5000586;28;20050;-67
2023/05/27 06:23:22;;;;;;;2.53;0.77;;;;;;;17.95;69.40;102204.06;4989999;28;20034;-67
2023/05/27 06:26:21;;;;;;;0.47;0.35;;;;;;;17.99;69.55;102212.31;4983842;28;20088;-66
2023/05/27 06:28:49;;;;;;;0.77;0.50;;;;;;;18.14;69.03;102219.53;5000294;28;20096;-66
2023/05/27 06:31:15;;;;;;;3.55;0.57;;;;;;;18.34;68.64;102206.56;4989357;28;20053;-65
2023/05/27 06:33:41;;;;;;;2.35;0.85;;;;;;;18.49;67.36;102213.81;4990096;28;20403;-66
2023/05/27 06:36:07;;;;;;;1.80;1.00;;;;;;;18.46;66.33;102215.38;4981932;28;20097;-66
2023/05/27 06:38:33;;;;;;;1.67;0.60;;;;;;;18.48;66.43;102217.72;4987306;28;20517;-64
2023/05/27 06:40:59;;;;;;;2.58;0.88;;;;;;;18.51;64.96;102214.25;4990193;28;20161;-65
2023/05/27 06:43:24;;;;;;;3.03;1.25;;;;;;;18.31;66.64;102208.09;4990268;28;20038;-64
2023/05/27 06:45:56;;;;;;;3.03;1.00;;;;;;;18.49;66.58;102213.81;4986771;28;20039;-65
2023/05/27 06:48:44;;;;;;;1.90;0.90;;;;;;;18.43;65.65;102204.38;4979316;28;20034;-65
2023/05/27 06:51:11;;;;;;;0.47;0.47;;;;;;;18.59;65.30;102200.31;4989492;28;20081;-65
2023/05/27 06:53:36;;;;;;;1.60;0.60;;;;;;;17.91;66.91;102202.44;4989914;28;20112;-65
2023/05/27 06:56:08;;;;;;;0.55;0.50;;;;;;;18.13;67.68;102198.09;4983912;28;20031;-65
2023/05/27 06:58:59;;;;;;;0.77;0.40;;;;;;;18.49;68.00;102190.06;4985441;28;20034;-66
2023/05/27 07:01:25;;;;;;;0.30;0.30;;;;;;;18.72;66.82;102201.66;4985945;28;20041;-65
2023/05/27 07:04:00;;;;;;;1.08;0.75;;;;;;;18.92;66.45;102197.59;4988408;28;20088;-65
2023/05/27 07:06:43;;;;;;;0.57;0.40;;;;;;;19.09;66.07;102187.22;4985569;28;20491;-65
2023/05/27 07:09:11;;;;;;;1.92;0.63;;;;;;;19.33;65.95;102201.19;4985063;28;20120;-65
2023/05/27 07:11:36;;;;;;;0.93;0.40;;;;;;;19.55;62.64;102205.66;5005736;28;20026;-65
2023/05/27 07:14:09;;;;;;;2.60;0.30;;;;;;;19.53;61.92;102201.75;4990417;28;20034;-65
2023/05/27 07:16:34;;;;;;;0.95;0.47;;;;;;;19.55;63.20;102199.44;4989255;28;20037;-65
2023/05/27 07:19:01;;;;;;;1.02;0.50;;;;;;;19.71;62.80;102203.47;4986340;28;20029;-64
2023/05/27 07:21:30;;;;;;;2.63;0.80;;;;;;;20.02;60.47;102204.06;4974159;28;20121;-65
2023/05/27 07:23:58;;;;;;;1.27;0.65;;;;;;;20.27;59.64;102203.09;4989643;28;20161;-65
2023/05/27 07:26:33;;;;;;;1.23;0.57;;;;;;;20.53;58.87;102204.78;4984802;28;20355;-64
2023/05/27 07:29:00;;;;;;;0.82;0.43;;;;;;;20.36;58.82;102197.28;4988901;28;20026;-63
2023/05/27 07:31:35;;;;;;;1.98;0.65;;;;;;;20.36;59.08;102200.78;4985998;28;20034;-65
2023/05/27 07:34:07;;;;;;;1.67;1.08;;;;;;;19.93;59.88;102187.22;4988587;28;20045;-65
2023/05/27 07:36:34;;;;;;;0.77;0.57;;;;;;;20.21;61.76;102187.44;4988811;28;20023;-66
2023/05/27 07:39:00;;;;;;;2.35;0.77;;;;;;;20.54;60.45;102200.88;4985702;28;20070;-65
2023/05/27 07:41:26;;;;;;;0.77;0.77;;;;;;;20.73;59.98;102194.31;4989853;28;20038;-64
2023/05/27 07:43:53;;;;;;;0.63;0.40;;;;;;;21.04;57.36;102183.47;4986683;28;20041;-66
2023/05/27 07:46:18;;;;;;;2.40;0.65;;;;;;;21.05;56.06;102187.78;4988943;28;20026;-64
2023/05/27 07:48:44;;;;;;;1.23;0.30;;;;;;;21.00;57.24;102190.84;4988687;28;20034;-64
2023/05/27 07:51:10;;;;;;;3.42;0.63;;;;;;;20.94;56.12;102186.16;4983560;28;20030;-66
2023/05/27 07:53:36;;;;;;;0.77;0.50;;;;;;;21.25;55.84;102186.25;4984928;28;20037;-66
2023/05/27 07:56:01;;;;;;;2.47;0.60;;;;;;;21.42;55.99;102190.19;4999847;28;20514;-65
2023/05/27 07:58:26;;;;;;;1.75;0.45;;;;;;;21.40;53.03;102178.81;4988755;28;20038;-66
2023/05/27 08:01:11;;;;;;;1.20;0.52;;;;;;;21.55;53.68;102181.19;4978637;28;20058;-65
2023/05/27 08:03:43;;;;;;;;;;;;;;;21.65;54.71;102179.63;4992011;28;20026;-67
2023/05/27 08:06:31;;;;;;;0.73;0.30;;;;;;;21.62;54.51;102176.88;4981243;28;20024;-67
2023/05/27 08:09:15;;;;;;;0.60;0.40;;;;;;;21.88;54.43;102169.03;4987074;28;20097;-66
2023/05/27 08:12:10;;;;;;;2.72;0.52;;;;;;;22.18;53.38;102163.09;4940780;28;20130;-65
2023/05/27 08:14:48;;;;;;;0.50;0.30;;;;;;;22.55;52.01;102168.81;4984345;28;20050;-65
2023/05/27 08:17:20;;;;;;;2.50;0.90;;;;;;;22.66;50.00;102157.81;4987868;28;20061;-65
2023/05/27 08:20:07;;;;;;;2.70;0.43;;;;;;;22.80;51.87;102161.25;4956988;28;20132;-65
2023/05/27 08:22:53;;;;;;;1.38;0.45;;;;;;;23.05;50.07;102159.16;4991993;28;20027;-64
2023/05/27 08:25:30;;;;;;;0.95;0.50;;;;;;;22.87;49.02;102157.69;4992208;28;20050;-64
2023/05/27 08:28:06;;;;;;;1.60;0.60;;;;;;;22.39;50.25;102155.56;4989541;28;20041;-66
2023/05/27 08:30:47;;;;;;;1.55;0.60;;;;;;;22.44;49.92;102157.09;4992238;28;20053;-65
2023/05/27 08:33:19;;;;;;;1.88;1.00;;;;;;;22.00;50.73;102154.91;4992597;28;20077;-64
2023/05/27 08:35:45;;;;;;;2.67;0.80;;;;;;;21.71;51.29;102155.31;4990995;28;20128;-65
2023/05/27 08:38:11;;;;;;;0.90;0.47;;;;;;;21.71;52.75;102147.88;4998171;28;20865;-68
2023/05/27 08:40:39;;;;;;;3.97;0.90;;;;;;;21.83;53.41;102146.72;5008354;28;20027;-67
2023/05/27 08:43:09;;;;;;;1.67;1.20;;;;;;;21.97;52.21;102143.94;4991945;28;20037;-66
2023/05/27 08:45:43;;;;;;;1.98;1.17;;;;;;;22.18;50.91;102138.38;5008584;28;20089;-66
2023/05/27 08:48:09;;;;;;;1.85;0.77;;;;;;;22.57;50.28;102128.03;4971521;28;20065;-66
2023/05/27 08:50:37;;;;;;;0.40;0.35;;;;;;;22.37;49.67;102135.97;4985848;28;20045;-66
2023/05/27 08:53:03;;;;;;;4.97;0.77;;;;;;;21.96;49.34;102132.16;4984190;28;20034;-66
2023/05/27 08:55:31;;;;;;;1.63;0.75;;;;;;;21.89;51.00;102123.19;4990747;28;20037;-67
2023/05/27 08:58:00;;;;;;;0.47;0.45;;;;;;;22.01;50.90;102133.75;4990842;28;20014;-65
2023/05/27 09:00:29;;;;;;;0.98;0.60;;;;;;;22.12;51.67;102123.50;4990421;28;20026;-67
2023/05/27 09:03:12;;;;;;;1.02;0.50;;;;;;;22.07;52.74;102121.16;4988791;28;20101;-67
2023/05/27 09:05:38;;;;;;;0.98;0.40;;;;;;;22.04;51.43;102121.97;4991190;28;20034;-66
2023/05/27 09:08:03;;;;;;;2.10;0.70;;;;;;;22.22;51.00;102128.94;4992267;28;20069;-65
2023/05/27 09:10:36;;;;;;;2.88;0.73;;;;;;;22.40;50.83;102112.41;4992062;28;20069;-66
2023/05/27 09:13:02;;;;;;;2.78;0.88;;;;;;;22.71;50.33;102116.97;4989162;28;20061;-66
2023/05/27 09:15:28;;;;;;;1.08;0.50;;;;;;;22.48;48.76;102113.94;4988288;28;20455;-65
2023/05/27 09:17:53;;;;;;;0.52;0.50;;;;;;;22.66;49.64;102117.41;4986590;28;20120;-66
2023/05/27 09:20:25;;;;;;;1.55;1.00;;;;;;;22.61;46.73;102120.56;4991199;28;20099;-66
2023/05/27 09:22:56;;;;;;;2.72;0.80;;;;;;;22.28;47.56;102110.88;4997783;28;20495;-66
2023/05/27 09:25:23;;;;;;;;;;;;;;;22.68;49.58;102112.28;5007801;28;20048;-65
2023/05/27 09:27:49;;;;;;;1.35;0.65;;;;;;;22.99;49.05;102110.50;4985976;28;19909;-66
2023/05/27 09:30:15;;;;;;;2.38;0.63;;;;;;;23.25;47.23;102110.69;5006079;28;20137;-66
2023/05/27 09:32:40;;;;;;;1.17;0.80;;;;;;;23.43;46.29;102118.03;4992634;28;20059;-66
2023/05/27 09:35:07;;;;;;;0.80;0.43;;;;;;;23.43;46.67;102113.31;4990218;28;20022;-63
2023/05/27 09:37:34;;;;;;;2.60;0.60;;;;;;;23.21;48.18;102112.69;4988986;28;20026;-66
2023/05/27 09:40:04;;;;;;;2.85;0.93;;;;;;;23.04;47.03;102105.38;4991756;28;20513;-66
2023/05/27 09:42:47;;;;;;;1.33;0.57;;;;;;;23.07;47.23;102106.53;4992513;28;20112;-67
2023/05/27 09:45:17;;;;;;;2.28;0.43;;;;;;;23.05;48.24;102106.91;4986730;28;20042;-66
2023/05/27 09:47:51;;;;;;;3.63;0.83;;;;;;;23.00;48.65;102106.56;4985221;28;20034;-65
2023/05/27 09:50:17;;;;;;;0.93;0.60;;;;;;;22.97;48.18;102102.69;4991463;28;20459;-66
2023/05/27 09:52:43;;;;;;;1.05;0.60;;;;;;;23.13;48.07;102102.94;4992029;28;20030;-67
2023/05/27 09:55:12;;;;;;;1.05;0.50;;;;;;;23.37;48.47;102100.41;4988004;28;20419;-66
2023/05/27 09:57:39;;;;;;;2.15;0.60;;;;;;;23.65;48.06;102097.41;5004211;28;20034;-67
2023/05/27 10:00:15;;;;;;;1.42;0.70;;;;;;;23.52;45.97;102101.84;4986517;28;20475;-66
2023/05/27 10:02:41;;;;;;;2.88;0.65;;;;;;;23.70;44.79;102096.94;4989722;28;20034;-66
2023/05/27 10:05:08;;;;;;;2.15;0.80;;;;;;;23.38;45.91;102089.03;5007102;28;20073;-66
2023/05/27 10:07:38;;;;;;;1.77;0.65;;;;;;;23.49;45.63;102088.91;4989993;28;20116;-66
2023/05/27 10:10:09;;;;;;;0.93;0.70;;;;;;;23.54;46.58;102086.47;4987448;28;20132;-67
2023/05/27 10:12:37;;;;;;;0.90;0.57;;;;;;;23.87;46.03;102077.47;4990431;28;20499;-67
2023/05/27 10:15:02;;;;;;;1.55;0.85;;;;;;;24.23;45.70;102083.38;4991529;28;20026;-67
2023/05/27 10:17:46;;;;;;;1.00;0.47;;;;;;;24.60;45.09;102085.25;4989783;28;20038;-67
2023/05/27 10:20:12;;;;;;;1.63;0.80;;;;;;;25.11;44.21;102084.06;4986861;28;20034;-65
2023/05/27 10:22:45;;;;;;;1.33;0.57;;;;;;;24.96;42.62;102080.78;4985181;28;20104;-66
2023/05/27 10:25:13;;;;;;;0.52;0.40;;;;;;;25.03;41.84;102075.13;4989829;28;20042;-67
2023/05/27 10:27:48;;;;;;;1.17;0.50;;;;;;;25.05;42.45;102073.53;4989475;28;20069;-66
2023/05/27 10:30:14;;;;;;;1.55;0.60;;;;;;;25.11;42.39;102070.28;4985467;28;20038;-66
2023/05/27 10:32:53;;;;;;;0.82;0.40;;;;;;;25.60;42.45;102080.47;4990446;28;20042;-64
2023/05/27 10:35:19;;;;;;;1.77;0.65;;;;;;;25.87;42.50;102073.63;4991315;28;20034;-67
2023/05/27 10:37:47;;;;;;;0.90;0.43;;;;;;;26.10;41.38;102075.56;4989356;28;20462;-66
2023/05/27 10:40:12;;;;;;;1.48;0.80;;;;;;;26.04;40.53;102077.22;4987261;28;20030;-66
2023/05/27 10:42:38;;;;;;;1.75;0.60;;;;;;;26.16;41.87;102070.31;4986008;28;20114;-67
2023/05/27 10:45:05;;;;;;;1.05;0.60;;;;;;;26.10;41.86;102072.00;4991545;28;20034;-65
2023/05/27 10:47:35;;;;;;;4.47;0.77;;;;;;;25.68;40.72;102070.88;4990597;28;20084;-66
2023/05/27 10:50:10;;;;;;;2.40;0.85;;;;;;;25.44;40.45;102066.56;5004637;23;20141;-61
2023/05/27 10:52:38;;;;;;;1.60;0.85;;;;;;;25.17;42.01;102061.13;4952336;28;20043;-61
2023/05/27 10:55:05;;;;;;;1.35;0.77;;;;;;;24.91;42.69;102059.97;4953396;28;20043;-60
2023/05/27 10:57:51;;;;;;;2.25;0.65;;;;;;;24.86;43.70;102054.16;4953123;28;20081;-59
2023/05/27 11:00:20;;;;;;;2.10;0.70;;;;;;;24.90;43.68;102057.63;4895096;29;20060;-59
2023/05/27 11:02:46;;;;;;;4.18;1.77;;;;;;;24.52;44.14;102046.00;4888211;29;20110;-59
2023/05/27 11:05:15;;;;;;;0.70;0.50;;;;;;;24.43;44.77;102051.22;4889865;29;20057;-62
2023/05/27 11:07:41;;;;;;;2.08;0.65;;;;;;;24.25;44.93;102045.19;4895383;29;20067;-61
2023/05/27 11:10:28;;;;;;;2.30;0.65;;;;;;;24.57;44.33;102047.47;4899298;29;20080;-61
2023/05/27 11:12:53;;;;;;;1.90;0.57;;;;;;;24.84;43.48;102042.75;4828912;29;20069;-60
2023/05/27 11:15:19;;;;;;;1.10;0.95;;;;;;;24.46;44.11;102046.84;4812450;29;20057;-61
2023/05/27 11:17:45;;;;;;;1.08;0.60;;;;;;;24.28;44.45;102047.09;4822084;29;20038;-58
2023/05/27 11:20:10;;;;;;;3.22;0.63;;;;;;;24.12;45.03;102035.91;4829776;29;20611;-60
2023/05/27 11:22:37;;;;;;;0.88;0.68;;;;;;;24.10;44.78;102030.81;4818632;29;20143;-58
2023/05/27 11:25:03;;;;;;;0.90;0.60;;;;;;;24.58;43.85;102033.31;4817174;29;20054;-59
2023/05/27 11:27:38;;;;;;;1.10;0.60;;;;;;;24.21;45.15;102030.69;4828769;29;20064;-60
2023/05/27 11:30:12;;;;;;;1.50;0.50;;;;;;;24.25;44.61;102036.94;4831190;29;20062;-60
2023/05/27 11:32:39;;;;;;;1.45;0.63;;;;;;;24.40;44.33;102032.78;4803885;29;20121;-57
2023/05/27 11:35:13;;;;;;;2.17;0.82;;;;;;;24.20;43.88;102020.84;4823212;29;20049;-60